sensor_id;sensor_type;location;lat;lon;timestamp;P1;durP1;ratioP1;P2;durP2;ratioP2
12762;SDS011;6445;52.490;13.378;2023-03-19T00:01:01;14.95;;;9.80;;
12762;SDS011;6445;52.490;13.378;2023-03-19T00:03:28;14.07;;;9.82;;
12762;SDS011;6445;52.490;13.378;2023-03-19T00:05:53;13.18;;;9.15;;
12762;SDS011;6445;52.490;13.378;2023-03-19T00:08:19;13.80;;;9.50;;
12762;SDS011;6445;52.490;13.378;2023-03-19T00:10:44;13.60;;;9.15;;
12762;SDS011;6445;52.490;13.378;2023-03-19T00:13:10;13.80;;;9.90;;
12762;SDS011;6445;52.490;13.378;2023-03-19T00:15:35;14.00;;;8.95;;
12762;SDS011;6445;52.490;13.378;2023-03-19T00:18:01;13.35;;;9.57;;
12762;SDS011;6445;52.490;13.378;2023-03-19T00:20:26;14.30;;;10.07;;
12762;SDS011;6445;52.490;13.378;2023-03-19T00:22:51;13.05;;;10.10;;
12762;SDS011;6445;52.490;13.378;2023-03-19T00:25:17;12.63;;;8.68;;
12762;SDS011;6445;52.490;13.378;2023-03-19T00:27:42;13.13;;;9.63;;
12762;SDS011;6445;52.490;13.378;2023-03-19T00:30:08;18.38;;;10.38;;
12762;SDS011;6445;52.490;13.378;2023-03-19T00:32:35;17.25;;;10.20;;
12762;SDS011;6445;52.490;13.378;2023-03-19T00:35:01;13.35;;;10.05;;
12762;SDS011;6445;52.490;13.378;2023-03-19T00:37:26;18.13;;;11.20;;
12762;SDS011;6445;52.490;13.378;2023-03-19T00:39:51;13.55;;;10.32;;
12762;SDS011;6445;52.490;13.378;2023-03-19T00:42:16;18.70;;;10.95;;
12762;SDS011;6445;52.490;13.378;2023-03-19T00:44:42;14.13;;;10.23;;
12762;SDS011;6445;52.490;13.378;2023-03-19T00:47:07;17.52;;;12.10;;
12762;SDS011;6445;52.490;13.378;2023-03-19T00:49:32;16.50;;;10.85;;
12762;SDS011;6445;52.490;13.378;2023-03-19T00:51:57;15.35;;;10.75;;
12762;SDS011;6445;52.490;13.378;2023-03-19T00:54:23;15.52;;;11.07;;
12762;SDS011;6445;52.490;13.378;2023-03-19T00:56:48;16.98;;;11.00;;
12762;SDS011;6445;52.490;13.378;2023-03-19T00:59:13;14.27;;;10.65;;
12762;SDS011;6445;52.490;13.378;2023-03-19T01:01:38;15.05;;;10.45;;
12762;SDS011;6445;52.490;13.378;2023-03-19T01:04:04;16.65;;;11.20;;
12762;SDS011;6445;52.490;13.378;2023-03-19T01:06:29;17.98;;;11.30;;
12762;SDS011;6445;52.490;13.378;2023-03-19T01:08:55;14.52;;;10.57;;
12762;SDS011;6445;52.490;13.378;2023-03-19T01:11:20;17.67;;;11.15;;
12762;SDS011;6445;52.490;13.378;2023-03-19T01:13:45;16.48;;;11.60;;
12762;SDS011;6445;52.490;13.378;2023-03-19T01:16:11;16.17;;;10.93;;
12762;SDS011;6445;52.490;13.378;2023-03-19T01:18:37;18.80;;;11.27;;
12762;SDS011;6445;52.490;13.378;2023-03-19T01:21:03;15.25;;;11.18;;
12762;SDS011;6445;52.490;13.378;2023-03-19T01:23:28;17.83;;;11.05;;
12762;SDS011;6445;52.490;13.378;2023-03-19T01:25:54;14.52;;;10.98;;
12762;SDS011;6445;52.490;13.378;2023-03-19T01:28:20;16.88;;;11.40;;
12762;SDS011;6445;52.490;13.378;2023-03-19T01:30:46;18.90;;;11.18;;
12762;SDS011;6445;52.490;13.378;2023-03-19T01:33:12;19.70;;;11.77;;
12762;SDS011;6445;52.490;13.378;2023-03-19T01:35:37;15.60;;;11.02;;
12762;SDS011;6445;52.490;13.378;2023-03-19T01:38:03;17.17;;;11.20;;
12762;SDS011;6445;52.490;13.378;2023-03-19T01:40:28;15.55;;;11.25;;
12762;SDS011;6445;52.490;13.378;2023-03-19T01:45:46;17.55;;;12.18;;
12762;SDS011;6445;52.490;13.378;2023-03-19T01:50:51;14.45;;;10.95;;
12762;SDS011;6445;52.490;13.378;2023-03-19T01:53:19;15.15;;;10.82;;
12762;SDS011;6445;52.490;13.378;2023-03-19T01:55:48;16.45;;;11.32;;
12762;SDS011;6445;52.490;13.378;2023-03-19T01:58:14;18.50;;;12.05;;
12762;SDS011;6445;52.490;13.378;2023-03-19T02:00:39;15.60;;;11.00;;
12762;SDS011;6445;52.490;13.378;2023-03-19T02:03:05;17.58;;;11.60;;
12762;SDS011;6445;52.490;13.378;2023-03-19T02:05:31;16.27;;;11.43;;
12762;SDS011;6445;52.490;13.378;2023-03-19T02:07:59;16.75;;;11.77;;
12762;SDS011;6445;52.490;13.378;2023-03-19T02:10:27;20.27;;;11.95;;
12762;SDS011;6445;52.490;13.378;2023-03-19T02:12:53;15.90;;;10.52;;
12762;SDS011;6445;52.490;13.378;2023-03-19T02:15:18;16.70;;;11.30;;
12762;SDS011;6445;52.490;13.378;2023-03-19T02:17:44;17.58;;;12.20;;
12762;SDS011;6445;52.490;13.378;2023-03-19T02:20:17;17.23;;;11.63;;
12762;SDS011;6445;52.490;13.378;2023-03-19T02:22:59;21.40;;;12.25;;
12762;SDS011;6445;52.490;13.378;2023-03-19T02:25:40;17.20;;;11.57;;
12762;SDS011;6445;52.490;13.378;2023-03-19T02:28:10;17.80;;;12.57;;
12762;SDS011;6445;52.490;13.378;2023-03-19T02:30:39;22.05;;;12.68;;
12762;SDS011;6445;52.490;13.378;2023-03-19T02:33:08;17.38;;;11.90;;
12762;SDS011;6445;52.490;13.378;2023-03-19T02:35:37;15.55;;;11.15;;
12762;SDS011;6445;52.490;13.378;2023-03-19T02:38:03;19.60;;;13.10;;
12762;SDS011;6445;52.490;13.378;2023-03-19T02:40:29;17.75;;;12.48;;
12762;SDS011;6445;52.490;13.378;2023-03-19T02:42:59;19.15;;;12.95;;
12762;SDS011;6445;52.490;13.378;2023-03-19T02:45:28;17.65;;;12.95;;
12762;SDS011;6445;52.490;13.378;2023-03-19T02:47:55;19.25;;;12.82;;
12762;SDS011;6445;52.490;13.378;2023-03-19T02:50:20;18.25;;;12.25;;
12762;SDS011;6445;52.490;13.378;2023-03-19T02:52:46;19.33;;;12.75;;
12762;SDS011;6445;52.490;13.378;2023-03-19T02:55:11;20.58;;;13.57;;
12762;SDS011;6445;52.490;13.378;2023-03-19T02:57:36;19.48;;;13.02;;
12762;SDS011;6445;52.490;13.378;2023-03-19T03:00:02;17.33;;;12.60;;
12762;SDS011;6445;52.490;13.378;2023-03-19T03:02:29;17.70;;;12.52;;
12762;SDS011;6445;52.490;13.378;2023-03-19T03:04:54;19.17;;;13.00;;
12762;SDS011;6445;52.490;13.378;2023-03-19T03:07:20;17.02;;;11.95;;
12762;SDS011;6445;52.490;13.378;2023-03-19T03:09:45;20.73;;;13.13;;
12762;SDS011;6445;52.490;13.378;2023-03-19T03:12:11;20.10;;;13.20;;
12762;SDS011;6445;52.490;13.378;2023-03-19T03:14:36;18.60;;;12.32;;
12762;SDS011;6445;52.490;13.378;2023-03-19T03:17:02;20.35;;;12.50;;
12762;SDS011;6445;52.490;13.378;2023-03-19T03:19:27;21.90;;;12.45;;
12762;SDS011;6445;52.490;13.378;2023-03-19T03:21:52;17.50;;;12.13;;
12762;SDS011;6445;52.490;13.378;2023-03-19T03:24:17;22.02;;;12.80;;
12762;SDS011;6445;52.490;13.378;2023-03-19T03:26:43;22.27;;;12.88;;
12762;SDS011;6445;52.490;13.378;2023-03-19T03:29:08;17.77;;;12.25;;
12762;SDS011;6445;52.490;13.378;2023-03-19T03:31:34;20.02;;;12.18;;
12762;SDS011;6445;52.490;13.378;2023-03-19T03:33:59;15.57;;;12.10;;
12762;SDS011;6445;52.490;13.378;2023-03-19T03:36:25;18.38;;;12.32;;
12762;SDS011;6445;52.490;13.378;2023-03-19T03:38:51;21.25;;;12.63;;
12762;SDS011;6445;52.490;13.378;2023-03-19T03:41:17;19.77;;;11.95;;
12762;SDS011;6445;52.490;13.378;2023-03-19T03:43:42;18.13;;;12.25;;
12762;SDS011;6445;52.490;13.378;2023-03-19T03:46:07;18.33;;;12.55;;
12762;SDS011;6445;52.490;13.378;2023-03-19T03:48:33;29.15;;;18.83;;
12762;SDS011;6445;52.490;13.378;2023-03-19T03:50:59;19.38;;;12.68;;
12762;SDS011;6445;52.490;13.378;2023-03-19T03:53:25;15.98;;;12.10;;
12762;SDS011;6445;52.490;13.378;2023-03-19T03:55:50;18.05;;;12.07;;
12762;SDS011;6445;52.490;13.378;2023-03-19T03:58:16;19.00;;;12.65;;
12762;SDS011;6445;52.490;13.378;2023-03-19T04:00:41;17.48;;;12.48;;
12762;SDS011;6445;52.490;13.378;2023-03-19T04:03:06;19.60;;;12.65;;
12762;SDS011;6445;52.490;13.378;2023-03-19T04:05:32;18.08;;;12.57;;
12762;SDS011;6445;52.490;13.378;2023-03-19T04:07:57;18.25;;;12.75;;
12762;SDS011;6445;52.490;13.378;2023-03-19T04:10:23;15.85;;;11.73;;
12762;SDS011;6445;52.490;13.378;2023-03-19T04:12:48;18.83;;;13.48;;
12762;SDS011;6445;52.490;13.378;2023-03-19T04:15:14;17.27;;;12.98;;
12762;SDS011;6445;52.490;13.378;2023-03-19T04:17:40;21.17;;;12.35;;
12762;SDS011;6445;52.490;13.378;2023-03-19T04:20:06;19.55;;;12.75;;
12762;SDS011;6445;52.490;13.378;2023-03-19T04:22:32;16.75;;;12.40;;
12762;SDS011;6445;52.490;13.378;2023-03-19T04:24:57;21.38;;;12.95;;
12762;SDS011;6445;52.490;13.378;2023-03-19T04:27:22;17.50;;;12.57;;
12762;SDS011;6445;52.490;13.378;2023-03-19T04:29:48;17.65;;;12.30;;
12762;SDS011;6445;52.490;13.378;2023-03-19T04:32:13;18.60;;;12.90;;
12762;SDS011;6445;52.490;13.378;2023-03-19T04:34:39;17.42;;;12.32;;
12762;SDS011;6445;52.490;13.378;2023-03-19T04:37:05;20.40;;;13.18;;
12762;SDS011;6445;52.490;13.378;2023-03-19T04:39:31;17.88;;;12.80;;
12762;SDS011;6445;52.490;13.378;2023-03-19T04:41:57;22.05;;;13.32;;
12762;SDS011;6445;52.490;13.378;2023-03-19T04:44:22;19.70;;;13.15;;
12762;SDS011;6445;52.490;13.378;2023-03-19T04:46:48;17.73;;;12.52;;
12762;SDS011;6445;52.490;13.378;2023-03-19T04:49:13;20.65;;;13.43;;
12762;SDS011;6445;52.490;13.378;2023-03-19T04:51:38;21.05;;;13.13;;
12762;SDS011;6445;52.490;13.378;2023-03-19T04:54:03;20.98;;;13.75;;
12762;SDS011;6445;52.490;13.378;2023-03-19T04:56:29;20.63;;;14.70;;
12762;SDS011;6445;52.490;13.378;2023-03-19T04:58:55;19.85;;;13.55;;
12762;SDS011;6445;52.490;13.378;2023-03-19T05:01:21;20.88;;;13.82;;
12762;SDS011;6445;52.490;13.378;2023-03-19T05:03:46;19.77;;;14.00;;
12762;SDS011;6445;52.490;13.378;2023-03-19T05:06:12;21.48;;;14.52;;
12762;SDS011;6445;52.490;13.378;2023-03-19T05:08:37;20.40;;;15.32;;
12762;SDS011;6445;52.490;13.378;2023-03-19T05:11:02;20.17;;;15.60;;
12762;SDS011;6445;52.490;13.378;2023-03-19T05:13:28;20.80;;;15.25;;
12762;SDS011;6445;52.490;13.378;2023-03-19T05:15:53;22.85;;;15.77;;
12762;SDS011;6445;52.490;13.378;2023-03-19T05:18:19;27.17;;;17.75;;
12762;SDS011;6445;52.490;13.378;2023-03-19T05:20:45;29.23;;;18.35;;
12762;SDS011;6445;52.490;13.378;2023-03-19T05:23:11;25.00;;;18.77;;
12762;SDS011;6445;52.490;13.378;2023-03-19T05:25:37;29.15;;;18.58;;
12762;SDS011;6445;52.490;13.378;2023-03-19T05:28:03;41.33;;;24.90;;
12762;SDS011;6445;52.490;13.378;2023-03-19T05:30:29;37.28;;;23.65;;
12762;SDS011;6445;52.490;13.378;2023-03-19T05:32:56;30.98;;;21.27;;
12762;SDS011;6445;52.490;13.378;2023-03-19T05:35:22;29.50;;;19.70;;
12762;SDS011;6445;52.490;13.378;2023-03-19T05:37:47;27.35;;;19.38;;
12762;SDS011;6445;52.490;13.378;2023-03-19T05:40:12;26.50;;;18.20;;
12762;SDS011;6445;52.490;13.378;2023-03-19T05:42:38;25.58;;;17.30;;
12762;SDS011;6445;52.490;13.378;2023-03-19T05:45:03;22.98;;;16.15;;
12762;SDS011;6445;52.490;13.378;2023-03-19T05:47:29;25.90;;;17.10;;
12762;SDS011;6445;52.490;13.378;2023-03-19T05:49:55;29.50;;;18.15;;
12762;SDS011;6445;52.490;13.378;2023-03-19T05:52:21;26.45;;;18.33;;
12762;SDS011;6445;52.490;13.378;2023-03-19T05:54:46;28.15;;;18.55;;
12762;SDS011;6445;52.490;13.378;2023-03-19T05:57:13;25.70;;;17.73;;
12762;SDS011;6445;52.490;13.378;2023-03-19T05:59:39;26.30;;;19.10;;
12762;SDS011;6445;52.490;13.378;2023-03-19T06:02:05;25.70;;;18.10;;
12762;SDS011;6445;52.490;13.378;2023-03-19T06:04:31;24.63;;;17.60;;
12762;SDS011;6445;52.490;13.378;2023-03-19T06:06:56;25.27;;;17.48;;
12762;SDS011;6445;52.490;13.378;2023-03-19T06:09:21;24.58;;;18.08;;
12762;SDS011;6445;52.490;13.378;2023-03-19T06:11:47;30.70;;;20.08;;
12762;SDS011;6445;52.490;13.378;2023-03-19T06:14:12;27.13;;;18.85;;
12762;SDS011;6445;52.490;13.378;2023-03-19T06:16:38;23.77;;;17.77;;
12762;SDS011;6445;52.490;13.378;2023-03-19T06:19:03;24.05;;;18.40;;
12762;SDS011;6445;52.490;13.378;2023-03-19T06:21:28;24.17;;;16.88;;
12762;SDS011;6445;52.490;13.378;2023-03-19T06:23:55;23.20;;;17.27;;
12762;SDS011;6445;52.490;13.378;2023-03-19T06:26:20;21.35;;;16.27;;
12762;SDS011;6445;52.490;13.378;2023-03-19T06:28:46;19.90;;;15.45;;
12762;SDS011;6445;52.490;13.378;2023-03-19T06:31:11;19.73;;;14.52;;
12762;SDS011;6445;52.490;13.378;2023-03-19T06:33:37;18.65;;;14.60;;
12762;SDS011;6445;52.490;13.378;2023-03-19T06:36:02;20.17;;;14.55;;
12762;SDS011;6445;52.490;13.378;2023-03-19T06:38:27;20.17;;;13.60;;
12762;SDS011;6445;52.490;13.378;2023-03-19T06:40:53;21.65;;;14.68;;
12762;SDS011;6445;52.490;13.378;2023-03-19T06:43:18;20.90;;;15.18;;
12762;SDS011;6445;52.490;13.378;2023-03-19T06:45:43;22.33;;;14.30;;
12762;SDS011;6445;52.490;13.378;2023-03-19T06:48:09;18.92;;;14.60;;
12762;SDS011;6445;52.490;13.378;2023-03-19T06:50:34;20.92;;;14.38;;
12762;SDS011;6445;52.490;13.378;2023-03-19T06:52:59;23.30;;;14.82;;
12762;SDS011;6445;52.490;13.378;2023-03-19T06:55:26;20.77;;;15.68;;
12762;SDS011;6445;52.490;13.378;2023-03-19T06:57:51;18.60;;;15.25;;
12762;SDS011;6445;52.490;13.378;2023-03-19T07:00:16;20.00;;;15.30;;
12762;SDS011;6445;52.490;13.378;2023-03-19T07:02:43;22.45;;;15.65;;
12762;SDS011;6445;52.490;13.378;2023-03-19T07:05:09;21.95;;;15.57;;
12762;SDS011;6445;52.490;13.378;2023-03-19T07:07:34;20.30;;;15.40;;
12762;SDS011;6445;52.490;13.378;2023-03-19T07:10:00;21.63;;;15.00;;
12762;SDS011;6445;52.490;13.378;2023-03-19T07:12:25;21.83;;;15.60;;
12762;SDS011;6445;52.490;13.378;2023-03-19T07:14:52;20.77;;;15.30;;
12762;SDS011;6445;52.490;13.378;2023-03-19T07:17:18;23.08;;;15.85;;
12762;SDS011;6445;52.490;13.378;2023-03-19T07:19:43;23.10;;;16.15;;
12762;SDS011;6445;52.490;13.378;2023-03-19T07:22:08;22.08;;;15.65;;
12762;SDS011;6445;52.490;13.378;2023-03-19T07:24:33;20.92;;;15.50;;
12762;SDS011;6445;52.490;13.378;2023-03-19T07:26:59;21.33;;;15.98;;
12762;SDS011;6445;52.490;13.378;2023-03-19T07:29:24;20.88;;;16.45;;
12762;SDS011;6445;52.490;13.378;2023-03-19T07:31:50;24.20;;;16.70;;
12762;SDS011;6445;52.490;13.378;2023-03-19T07:34:15;23.33;;;18.00;;
12762;SDS011;6445;52.490;13.378;2023-03-19T07:36:40;29.10;;;18.33;;
12762;SDS011;6445;52.490;13.378;2023-03-19T07:39:05;26.58;;;18.75;;
12762;SDS011;6445;52.490;13.378;2023-03-19T07:41:31;28.15;;;17.80;;
12762;SDS011;6445;52.490;13.378;2023-03-19T07:43:56;30.13;;;18.77;;
12762;SDS011;6445;52.490;13.378;2023-03-19T07:46:21;29.35;;;20.00;;
12762;SDS011;6445;52.490;13.378;2023-03-19T07:48:47;22.45;;;17.35;;
12762;SDS011;6445;52.490;13.378;2023-03-19T07:51:12;23.27;;;16.20;;
12762;SDS011;6445;52.490;13.378;2023-03-19T07:53:37;21.33;;;15.10;;
12762;SDS011;6445;52.490;13.378;2023-03-19T07:56:02;19.48;;;15.00;;
12762;SDS011;6445;52.490;13.378;2023-03-19T07:58:28;17.67;;;13.02;;
12762;SDS011;6445;52.490;13.378;2023-03-19T08:00:53;18.23;;;13.85;;
12762;SDS011;6445;52.490;13.378;2023-03-19T08:03:19;21.25;;;13.75;;
12762;SDS011;6445;52.490;13.378;2023-03-19T08:05:46;18.02;;;13.35;;
12762;SDS011;6445;52.490;13.378;2023-03-19T08:08:12;18.33;;;13.85;;
12762;SDS011;6445;52.490;13.378;2023-03-19T08:10:39;19.42;;;14.95;;
12762;SDS011;6445;52.490;13.378;2023-03-19T08:13:04;18.35;;;13.98;;
12762;SDS011;6445;52.490;13.378;2023-03-19T08:15:29;21.20;;;15.02;;
12762;SDS011;6445;52.490;13.378;2023-03-19T08:17:58;21.63;;;13.40;;
12762;SDS011;6445;52.490;13.378;2023-03-19T08:20:25;18.48;;;13.30;;
12762;SDS011;6445;52.490;13.378;2023-03-19T08:22:50;19.05;;;13.82;;
12762;SDS011;6445;52.490;13.378;2023-03-19T08:25:16;18.05;;;12.93;;
12762;SDS011;6445;52.490;13.378;2023-03-19T08:27:41;17.77;;;12.45;;
12762;SDS011;6445;52.490;13.378;2023-03-19T08:30:07;17.13;;;13.57;;
12762;SDS011;6445;52.490;13.378;2023-03-19T08:32:34;17.45;;;13.20;;
12762;SDS011;6445;52.490;13.378;2023-03-19T08:35:00;20.70;;;14.63;;
12762;SDS011;6445;52.490;13.378;2023-03-19T08:37:26;39.38;;;26.70;;
12762;SDS011;6445;52.490;13.378;2023-03-19T08:39:52;20.02;;;15.15;;
12762;SDS011;6445;52.490;13.378;2023-03-19T08:42:18;21.55;;;15.48;;
12762;SDS011;6445;52.490;13.378;2023-03-19T08:44:44;20.52;;;15.23;;
12762;SDS011;6445;52.490;13.378;2023-03-19T08:47:09;22.15;;;15.88;;
12762;SDS011;6445;52.490;13.378;2023-03-19T08:49:35;24.05;;;16.20;;
12762;SDS011;6445;52.490;13.378;2023-03-19T08:52:00;22.88;;;16.15;;
12762;SDS011;6445;52.490;13.378;2023-03-19T08:54:25;22.77;;;17.00;;
12762;SDS011;6445;52.490;13.378;2023-03-19T08:56:51;29.73;;;18.00;;
12762;SDS011;6445;52.490;13.378;2023-03-19T08:59:16;23.80;;;17.67;;
12762;SDS011;6445;52.490;13.378;2023-03-19T09:01:41;29.35;;;17.95;;
12762;SDS011;6445;52.490;13.378;2023-03-19T09:04:08;26.08;;;18.83;;
12762;SDS011;6445;52.490;13.378;2023-03-19T09:06:33;26.20;;;17.60;;
12762;SDS011;6445;52.490;13.378;2023-03-19T09:08:58;31.38;;;19.13;;
12762;SDS011;6445;52.490;13.378;2023-03-19T09:11:23;28.30;;;19.15;;
12762;SDS011;6445;52.490;13.378;2023-03-19T09:13:49;29.58;;;18.63;;
12762;SDS011;6445;52.490;13.378;2023-03-19T09:16:14;29.95;;;19.75;;
12762;SDS011;6445;52.490;13.378;2023-03-19T09:18:39;28.02;;;19.60;;
12762;SDS011;6445;52.490;13.378;2023-03-19T09:21:05;28.45;;;21.00;;
12762;SDS011;6445;52.490;13.378;2023-03-19T09:23:30;29.10;;;20.45;;
12762;SDS011;6445;52.490;13.378;2023-03-19T09:25:55;28.45;;;20.55;;
12762;SDS011;6445;52.490;13.378;2023-03-19T09:28:21;31.05;;;19.63;;
12762;SDS011;6445;52.490;13.378;2023-03-19T09:30:47;28.05;;;19.98;;
12762;SDS011;6445;52.490;13.378;2023-03-19T09:33:14;25.27;;;19.58;;
12762;SDS011;6445;52.490;13.378;2023-03-19T09:35:40;29.00;;;19.45;;
12762;SDS011;6445;52.490;13.378;2023-03-19T09:38:06;26.83;;;18.98;;
12762;SDS011;6445;52.490;13.378;2023-03-19T09:40:38;27.13;;;19.63;;
12762;SDS011;6445;52.490;13.378;2023-03-19T09:46:10;22.73;;;18.38;;
12762;SDS011;6445;52.490;13.378;2023-03-19T09:48:50;23.45;;;18.23;;
12762;SDS011;6445;52.490;13.378;2023-03-19T09:51:26;25.52;;;18.20;;
12762;SDS011;6445;52.490;13.378;2023-03-19T09:53:59;28.15;;;20.95;;
12762;SDS011;6445;52.490;13.378;2023-03-19T09:56:28;20.60;;;16.42;;
12762;SDS011;6445;52.490;13.378;2023-03-19T09:58:56;22.35;;;17.35;;
12762;SDS011;6445;52.490;13.378;2023-03-19T10:01:26;22.92;;;17.52;;
12762;SDS011;6445;52.490;13.378;2023-03-19T10:04:08;22.35;;;16.38;;
12762;SDS011;6445;52.490;13.378;2023-03-19T10:06:49;22.05;;;16.33;;
12762;SDS011;6445;52.490;13.378;2023-03-19T10:12:02;24.63;;;16.98;;
12762;SDS011;6445;52.490;13.378;2023-03-19T10:17:20;22.27;;;15.85;;
12762;SDS011;6445;52.490;13.378;2023-03-19T10:19:54;18.92;;;14.82;;
12762;SDS011;6445;52.490;13.378;2023-03-19T10:22:27;20.50;;;15.10;;
12762;SDS011;6445;52.490;13.378;2023-03-19T10:24:59;20.33;;;14.32;;
12762;SDS011;6445;52.490;13.378;2023-03-19T10:27:27;20.10;;;15.18;;
12762;SDS011;6445;52.490;13.378;2023-03-19T10:29:53;17.60;;;13.35;;
12762;SDS011;6445;52.490;13.378;2023-03-19T10:32:20;16.02;;;13.00;;
12762;SDS011;6445;52.490;13.378;2023-03-19T10:34:53;16.80;;;12.82;;
12762;SDS011;6445;52.490;13.378;2023-03-19T10:37:24;15.50;;;12.60;;
12762;SDS011;6445;52.490;13.378;2023-03-19T10:39:54;17.48;;;12.93;;
12762;SDS011;6445;52.490;13.378;2023-03-19T10:42:38;20.85;;;13.55;;
12762;SDS011;6445;52.490;13.378;2023-03-19T10:45:38;15.80;;;12.32;;
12762;SDS011;6445;52.490;13.378;2023-03-19T10:48:03;15.43;;;11.80;;
12762;SDS011;6445;52.490;13.378;2023-03-19T10:55:38;15.00;;;10.93;;
12762;SDS011;6445;52.490;13.378;2023-03-19T10:58:33;13.68;;;11.05;;
12762;SDS011;6445;52.490;13.378;2023-03-19T11:01:16;13.35;;;10.48;;
12762;SDS011;6445;52.490;13.378;2023-03-19T11:06:17;13.55;;;10.20;;
12762;SDS011;6445;52.490;13.378;2023-03-19T11:08:57;12.10;;;9.23;;
12762;SDS011;6445;52.490;13.378;2023-03-19T11:11:46;10.27;;;9.18;;
12762;SDS011;6445;52.490;13.378;2023-03-19T11:14:21;11.13;;;8.60;;
12762;SDS011;6445;52.490;13.378;2023-03-19T11:19:28;9.93;;;8.30;;
12762;SDS011;6445;52.490;13.378;2023-03-19T11:24:32;12.85;;;8.65;;
12762;SDS011;6445;52.490;13.378;2023-03-19T11:27:00;10.23;;;7.85;;
12762;SDS011;6445;52.490;13.378;2023-03-19T11:29:27;9.23;;;8.32;;
12762;SDS011;6445;52.490;13.378;2023-03-19T11:32:03;9.98;;;7.60;;
12762;SDS011;6445;52.490;13.378;2023-03-19T11:34:53;10.15;;;7.88;;
12762;SDS011;6445;52.490;13.378;2023-03-19T11:37:31;10.77;;;8.80;;
12762;SDS011;6445;52.490;13.378;2023-03-19T11:40:15;11.13;;;8.25;;
12762;SDS011;6445;52.490;13.378;2023-03-19T11:42:52;10.38;;;8.63;;
12762;SDS011;6445;52.490;13.378;2023-03-19T11:45:30;9.80;;;8.02;;
12762;SDS011;6445;52.490;13.378;2023-03-19T11:48:14;10.75;;;8.70;;
12762;SDS011;6445;52.490;13.378;2023-03-19T11:53:26;10.40;;;8.20;;
12762;SDS011;6445;52.490;13.378;2023-03-19T11:56:20;11.50;;;8.15;;
12762;SDS011;6445;52.490;13.378;2023-03-19T11:59:02;10.05;;;8.15;;
12762;SDS011;6445;52.490;13.378;2023-03-19T12:10:24;47.75;;;28.83;;
12762;SDS011;6445;52.490;13.378;2023-03-19T12:16:31;9.40;;;7.68;;
12762;SDS011;6445;52.490;13.378;2023-03-19T12:19:12;9.75;;;8.32;;
12762;SDS011;6445;52.490;13.378;2023-03-19T12:29:58;9.23;;;7.82;;
12762;SDS011;6445;52.490;13.378;2023-03-19T12:35:25;7.82;;;7.03;;
12762;SDS011;6445;52.490;13.378;2023-03-19T12:38:00;11.30;;;7.60;;
12762;SDS011;6445;52.490;13.378;2023-03-19T12:40:44;10.73;;;8.23;;
12762;SDS011;6445;52.490;13.378;2023-03-19T12:43:26;13.40;;;10.48;;
12762;SDS011;6445;52.490;13.378;2023-03-19T12:46:01;10.88;;;8.57;;
12762;SDS011;6445;52.490;13.378;2023-03-19T12:48:47;8.25;;;7.38;;
12762;SDS011;6445;52.490;13.378;2023-03-19T12:51:18;12.05;;;8.57;;
12762;SDS011;6445;52.490;13.378;2023-03-19T12:54:01;13.30;;;8.73;;
12762;SDS011;6445;52.490;13.378;2023-03-19T12:56:37;11.88;;;8.05;;
12762;SDS011;6445;52.490;13.378;2023-03-19T13:02:14;9.35;;;7.40;;
12762;SDS011;6445;52.490;13.378;2023-03-19T13:05:06;11.70;;;8.50;;
12762;SDS011;6445;52.490;13.378;2023-03-19T13:08:01;10.35;;;8.55;;
12762;SDS011;6445;52.490;13.378;2023-03-19T13:10:27;11.43;;;8.07;;
12762;SDS011;6445;52.490;13.378;2023-03-19T13:12:56;8.88;;;7.80;;
12762;SDS011;6445;52.490;13.378;2023-03-19T13:15:24;10.23;;;8.15;;
12762;SDS011;6445;52.490;13.378;2023-03-19T13:23:40;10.70;;;7.68;;
12762;SDS011;6445;52.490;13.378;2023-03-19T13:26:09;10.20;;;7.60;;
12762;SDS011;6445;52.490;13.378;2023-03-19T13:28:37;8.75;;;7.45;;
12762;SDS011;6445;52.490;13.378;2023-03-19T13:31:18;8.00;;;7.20;;
12762;SDS011;6445;52.490;13.378;2023-03-19T13:34:05;8.88;;;7.13;;
12762;SDS011;6445;52.490;13.378;2023-03-19T13:36:42;9.98;;;7.65;;
12762;SDS011;6445;52.490;13.378;2023-03-19T13:39:14;11.07;;;7.65;;
12762;SDS011;6445;52.490;13.378;2023-03-19T13:44:23;8.17;;;7.37;;
12762;SDS011;6445;52.490;13.378;2023-03-19T13:46:59;11.27;;;7.93;;
12762;SDS011;6445;52.490;13.378;2023-03-19T13:52:44;9.63;;;7.30;;
12762;SDS011;6445;52.490;13.378;2023-03-19T13:57:56;12.48;;;8.25;;
12762;SDS011;6445;52.490;13.378;2023-03-19T14:03:14;9.63;;;7.22;;
12762;SDS011;6445;52.490;13.378;2023-03-19T14:05:43;12.02;;;6.93;;
12762;SDS011;6445;52.490;13.378;2023-03-19T14:08:14;7.72;;;6.43;;
12762;SDS011;6445;52.490;13.378;2023-03-19T14:10:48;9.25;;;5.97;;
12762;SDS011;6445;52.490;13.378;2023-03-19T14:13:58;8.45;;;6.28;;
12762;SDS011;6445;52.490;13.378;2023-03-19T14:16:13;10.02;;;6.03;;
12762;SDS011;6445;52.490;13.378;2023-03-19T14:18:46;9.63;;;6.47;;
12762;SDS011;6445;52.490;13.378;2023-03-19T14:21:15;6.75;;;5.32;;
12762;SDS011;6445;52.490;13.378;2023-03-19T14:23:54;8.15;;;5.93;;
12762;SDS011;6445;52.490;13.378;2023-03-19T14:26:22;8.98;;;6.20;;
12762;SDS011;6445;52.490;13.378;2023-03-19T14:28:53;9.55;;;5.97;;
12762;SDS011;6445;52.490;13.378;2023-03-19T14:31:22;8.32;;;6.45;;
12762;SDS011;6445;52.490;13.378;2023-03-19T14:33:54;8.45;;;6.60;;
12762;SDS011;6445;52.490;13.378;2023-03-19T14:36:23;8.82;;;6.13;;
12762;SDS011;6445;52.490;13.378;2023-03-19T14:38:58;8.70;;;6.18;;
12762;SDS011;6445;52.490;13.378;2023-03-19T14:41:26;8.07;;;6.13;;
12762;SDS011;6445;52.490;13.378;2023-03-19T14:52:27;9.32;;;6.30;;
12762;SDS011;6445;52.490;13.378;2023-03-19T14:54:55;9.05;;;6.30;;
12762;SDS011;6445;52.490;13.378;2023-03-19T14:57:25;7.97;;;6.32;;
12762;SDS011;6445;52.490;13.378;2023-03-19T14:59:52;9.40;;;6.50;;
12762;SDS011;6445;52.490;13.378;2023-03-19T15:04:45;8.65;;;6.38;;
12762;SDS011;6445;52.490;13.378;2023-03-19T15:07:17;10.82;;;6.40;;
12762;SDS011;6445;52.490;13.378;2023-03-19T15:09:53;8.52;;;6.13;;
12762;SDS011;6445;52.490;13.378;2023-03-19T15:12:22;7.82;;;5.75;;
12762;SDS011;6445;52.490;13.378;2023-03-19T15:15:11;7.60;;;5.97;;
12762;SDS011;6445;52.490;13.378;2023-03-19T15:17:46;7.55;;;5.80;;
12762;SDS011;6445;52.490;13.378;2023-03-19T15:20:23;9.85;;;6.38;;
12762;SDS011;6445;52.490;13.378;2023-03-19T15:22:58;7.13;;;5.63;;
12762;SDS011;6445;52.490;13.378;2023-03-19T15:25:25;6.85;;;5.70;;
12762;SDS011;6445;52.490;13.378;2023-03-19T15:28:04;10.38;;;6.00;;
12762;SDS011;6445;52.490;13.378;2023-03-19T15:30:32;7.40;;;5.97;;
12762;SDS011;6445;52.490;13.378;2023-03-19T15:32:57;8.07;;;5.50;;
12762;SDS011;6445;52.490;13.378;2023-03-19T15:35:24;7.28;;;5.93;;
12762;SDS011;6445;52.490;13.378;2023-03-19T15:37:55;8.75;;;6.32;;
12762;SDS011;6445;52.490;13.378;2023-03-19T15:40:24;9.00;;;6.65;;
12762;SDS011;6445;52.490;13.378;2023-03-19T15:42:54;10.48;;;6.88;;
12762;SDS011;6445;52.490;13.378;2023-03-19T15:45:22;10.50;;;7.18;;
12762;SDS011;6445;52.490;13.378;2023-03-19T15:47:53;10.57;;;6.95;;
12762;SDS011;6445;52.490;13.378;2023-03-19T15:50:25;9.80;;;7.03;;
12762;SDS011;6445;52.490;13.378;2023-03-19T15:52:55;9.90;;;7.00;;
12762;SDS011;6445;52.490;13.378;2023-03-19T15:55:23;10.63;;;7.47;;
12762;SDS011;6445;52.490;13.378;2023-03-19T15:57:50;9.55;;;7.22;;